Time;durP1;ratioP1;P1;durP2;ratioP2;P2;SDS_P1;SDS_P2;PMS_P1;PMS_P2;Temp;Humidity;BMP_temperature;BMP_pressure;BME280_temperature;BME280_humidity;BME280_pressure;Samples;Min_cycle;Max_cycle;Signal;HPM_P1;HPM_P2
2023/01/20 00:01:16;;;;;;;7.95;7.15;;;19.50;50.90;;;;;;4946651;28;20282;-66
2023/01/20 00:03:44;;;;;;;8.13;7.00;;;19.50;50.70;;;;;;4953427;29;20297;-66
2023/01/20 00:06:11;;;;;;;8.35;7.45;;;19.50;50.80;;;;;;4940322;29;20212;-66
2023/01/20 00:08:37;;;;;;;9.50;7.50;;;19.50;50.90;;;;;;4934036;29;20202;-66
2023/01/20 00:11:10;;;;;;;10.45;7.70;;;19.50;50.80;;;;;;4930177;29;20198;-66
2023/01/20 00:13:37;;;;;;;7.57;6.88;;;19.50;50.90;;;;;;4929222;29;20214;-66
2023/01/20 00:16:05;;;;;;;7.25;6.30;;;19.50;50.80;;;;;;4926284;29;20202;-66
2023/01/20 00:18:32;;;;;;;8.98;7.05;;;19.50;50.80;;;;;;4926253;29;20234;-66
2023/01/20 00:21:11;;;;;;;9.10;6.97;;;19.50;50.80;;;;;;4929438;29;20221;-66
2023/01/20 00:23:39;;;;;;;7.85;7.05;;;19.50;50.80;;;;;;4920883;29;20269;-66
2023/01/20 00:26:08;;;;;;;7.32;6.63;;;19.50;50.70;;;;;;4939652;29;20186;-66
2023/01/20 00:28:35;;;;;;;8.02;6.97;;;19.50;50.70;;;;;;4928603;29;20282;-66
2023/01/20 00:31:21;;;;;;;8.75;7.13;;;19.50;50.80;;;;;;4945787;29;20194;-66
2023/01/20 00:33:50;;;;;;;7.70;6.90;;;19.50;50.80;;;;;;4938319;29;20275;-66
2023/01/20 00:36:17;;;;;;;7.40;6.70;;;19.50;50.70;;;;;;4945177;29;20198;-66
2023/01/20 00:38:43;;;;;;;7.45;6.47;;;19.50;50.70;;;;;;4937051;29;20194;-66
2023/01/20 00:41:10;;;;;;;7.95;6.97;;;19.50;50.80;;;;;;4940361;29;20191;-66
2023/01/20 00:43:36;;;;;;;7.07;6.28;;;19.50;50.70;;;;;;4949717;29;20743;-66
2023/01/20 00:46:03;;;;;;;7.30;6.25;;;19.50;50.80;;;;;;4938789;29;20213;-67
2023/01/20 00:48:30;;;;;;;7.00;6.30;;;19.50;50.80;;;;;;4945488;29;20213;-66
2023/01/20 00:50:55;;;;;;;7.25;6.55;;;19.50;50.80;;;;;;4945833;29;20198;-66
2023/01/20 00:53:21;;;;;;;7.68;6.38;;;19.50;50.80;;;;;;4953986;28;20217;-66
2023/01/20 00:55:47;;;;;;;6.75;6.00;;;19.50;50.70;;;;;;4936940;29;20195;-66
2023/01/20 00:58:13;;;;;;;6.35;5.75;;;19.50;50.70;;;;;;4952903;29;20874;-65
2023/01/20 01:00:39;;;;;;;7.53;6.35;;;19.50;50.70;;;;;;4944739;29;20246;-66
2023/01/20 01:03:04;;;;;;;6.55;5.75;;;19.40;50.50;;;;;;4948791;29;20203;-67
2023/01/20 01:05:31;;;;;;;7.07;6.38;;;19.50;50.70;;;;;;4941080;29;20213;-66
2023/01/20 01:07:57;;;;;;;6.20;5.60;;;19.50;50.70;;;;;;4953926;28;20194;-66
2023/01/20 01:10:23;;;;;;;6.50;5.80;;;19.50;50.70;;;;;;4952790;28;20202;-66
2023/01/20 01:12:49;;;;;;;6.45;5.85;;;19.50;50.60;;;;;;4942975;29;20223;-66
2023/01/20 01:15:14;;;;;;;6.35;5.75;;;19.50;50.60;;;;;;4917681;29;20275;-66
2023/01/20 01:17:42;;;;;;;6.72;6.10;;;19.50;50.60;;;;;;4918727;29;20234;-66
2023/01/20 01:20:11;;;;;;;6.00;5.40;;;19.40;50.50;;;;;;4948346;28;20219;-66
2023/01/20 01:22:37;;;;;;;6.30;5.63;;;19.40;50.50;;;;;;4941737;29;20202;-66
2023/01/20 01:25:03;;;;;;;6.40;5.80;;;19.40;50.60;;;;;;4952467;29;20356;-66
2023/01/20 01:27:29;;;;;;;6.35;5.57;;;19.40;50.60;;;;;;4952937;29;20187;-66
2023/01/20 01:29:54;;;;;;;6.57;5.82;;;19.40;50.50;;;;;;4950082;29;20202;-66
2023/01/20 01:32:21;;;;;;;6.15;5.38;;;19.50;50.60;;;;;;4923657;29;20233;-64
2023/01/20 01:34:47;;;;;;;6.45;5.85;;;19.40;50.50;;;;;;4944251;29;20211;-66
2023/01/20 01:37:13;;;;;;;6.03;5.38;;;19.50;50.60;;;;;;4930250;29;20193;-66
2023/01/20 01:39:39;;;;;;;6.32;5.72;;;19.40;50.50;;;;;;4937820;29;20245;-66
2023/01/20 01:42:16;;;;;;;6.68;5.97;;;19.40;50.50;;;;;;4939804;29;20244;-66
2023/01/20 01:45:09;;;;;;;6.38;5.63;;;19.50;50.60;;;;;;4955866;28;20210;-66
2023/01/20 01:47:47;;;;;;;6.28;5.68;;;19.40;50.50;;;;;;4932316;29;20203;-66
2023/01/20 01:50:25;;;;;;;6.53;5.82;;;19.40;50.50;;;;;;4950383;29;20623;-66
2023/01/20 01:52:54;;;;;;;6.13;5.53;;;19.40;50.50;;;;;;4972227;28;20286;-66
2023/01/20 01:55:28;;;;;;;6.35;5.63;;;19.40;51.10;;;;;;4950080;29;20219;-66
2023/01/20 01:57:56;;;;;;;6.65;5.57;;;19.40;50.50;;;;;;4947053;29;20256;-66
2023/01/20 02:00:22;;;;;;;5.50;5.00;;;19.40;50.50;;;;;;4941739;29;20191;-66
2023/01/20 02:02:49;;;;;;;6.10;5.50;;;19.40;50.40;;;;;;4938012;29;20230;-67
2023/01/20 02:05:17;;;;;;;6.18;5.57;;;19.40;50.50;;;;;;4950737;29;20233;-66
2023/01/20 02:07:46;;;;;;;6.00;5.32;;;19.40;50.50;;;;;;4929184;29;20202;-66
2023/01/20 02:10:13;;;;;;;5.53;5.03;;;19.40;50.40;;;;;;4943113;29;20226;-66
2023/01/20 02:12:42;;;;;;;6.15;5.43;;;19.40;50.80;;;;;;4936392;29;20226;-66
2023/01/20 02:15:08;;;;;;;5.75;5.25;;;19.40;51.00;;;;;;4951618;29;20306;-66
2023/01/20 02:18:11;;;;;;;5.57;5.07;;;19.40;50.50;;;;;;4920496;29;20187;-66
2023/01/20 02:21:08;;;;;;;5.45;4.95;;;19.40;50.40;;;;;;4951761;29;20198;-66
2023/01/20 02:24:20;;;;;;;5.85;5.25;;;19.40;50.50;;;;;;4931423;29;20222;-66
2023/01/20 02:26:55;;;;;;;5.40;4.90;;;19.40;50.40;;;;;;4921323;29;20203;-66
2023/01/20 02:29:50;;;;;;;5.10;4.63;;;19.40;50.40;;;;;;4949414;29;20217;-66
2023/01/20 02:32:55;;;;;;;5.15;4.65;;;19.40;50.40;;;;;;4940800;29;20266;-66
2023/01/20 02:35:45;;;;;;;5.25;4.75;;;19.40;50.40;;;;;;4941720;28;20215;-66
2023/01/20 02:38:44;;;;;;;5.53;4.82;;;19.40;50.40;;;;;;4940339;29;20225;-66
2023/01/20 02:41:49;;;;;;;5.07;4.68;;;19.40;50.40;;;;;;4943386;29;20195;-66
2023/01/20 02:44:58;;;;;;;5.55;5.05;;;19.40;50.40;;;;;;4940405;29;20221;-66
2023/01/20 02:47:50;;;;;;;5.13;4.63;;;19.40;50.40;;;;;;4949632;29;20230;-66
2023/01/20 02:50:43;;;;;;;5.13;4.63;;;19.40;50.40;;;;;;4954518;28;20233;-66
2023/01/20 02:53:14;;;;;;;5.28;4.78;;;19.40;50.40;;;;;;4954938;29;20281;-66
2023/01/20 02:55:46;;;;;;;4.65;4.25;;;19.40;50.40;;;;;;4956101;28;20206;-66
2023/01/20 02:58:36;;;;;;;5.40;4.90;;;19.40;50.30;;;;;;4956080;28;20214;-66
2023/01/20 03:01:38;;;;;;;4.65;4.03;;;19.40;50.30;;;;;;4943742;29;20215;-66
2023/01/20 03:04:08;;;;;;;4.60;4.20;;;19.40;50.40;;;;;;4959083;28;20237;-66
2023/01/20 03:06:40;;;;;;;5.40;4.90;;;19.40;50.30;;;;;;4946535;29;20686;-66
2023/01/20 03:09:11;;;;;;;5.18;4.63;;;19.40;50.30;;;;;;4938359;29;20226;-66
2023/01/20 03:11:46;;;;;;;4.72;4.32;;;19.40;50.20;;;;;;4954253;29;20221;-66
2023/01/20 03:14:14;;;;;;;4.65;4.25;;;19.40;50.20;;;;;;4930442;29;20679;-66
2023/01/20 03:16:40;;;;;;;5.38;4.50;;;19.40;50.30;;;;;;4930360;29;20194;-66
2023/01/20 03:19:07;;;;;;;5.65;4.80;;;19.40;50.30;;;;;;4935262;29;20219;-66
2023/01/20 03:21:33;;;;;;;4.88;4.38;;;19.40;50.20;;;;;;4935163;29;20190;-66
2023/01/20 03:24:02;;;;;;;4.88;4.30;;;19.30;50.20;;;;;;4940025;28;20211;-66
2023/01/20 03:26:29;;;;;;;5.03;4.47;;;19.30;50.20;;;;;;4938187;28;20190;-66
2023/01/20 03:28:56;;;;;;;4.72;4.32;;;19.30;50.10;;;;;;4938045;28;20266;-66
2023/01/20 03:31:32;;;;;;;5.10;4.60;;;19.30;50.10;;;;;;4954003;28;20293;-66
2023/01/20 03:34:02;;;;;;;4.60;4.20;;;19.30;50.10;;;;;;4928369;29;20696;-66
2023/01/20 03:36:31;;;;;;;5.38;4.88;;;19.30;50.10;;;;;;4948793;29;20226;-66
2023/01/20 03:38:58;;;;;;;5.47;4.97;;;19.40;50.20;;;;;;4937964;29;20191;-66
2023/01/20 03:41:34;;;;;;;5.25;4.75;;;19.40;50.20;;;;;;4932604;29;20191;-66
2023/01/20 03:44:43;;;;;;;5.53;4.95;;;19.30;50.10;;;;;;4934697;29;20211;-66
2023/01/20 03:47:21;;;;;;;5.13;4.63;;;19.40;50.10;;;;;;4940435;29;20261;-65
2023/01/20 03:50:14;;;;;;;5.53;5.03;;;19.30;50.00;;;;;;4922209;29;20258;-66
2023/01/20 03:53:11;;;;;;;5.43;4.80;;;19.30;50.00;;;;;;4953879;29;20214;-67
2023/01/20 03:56:02;;;;;;;5.85;5.25;;;19.30;50.10;;;;;;4938729;29;20611;-66
2023/01/20 03:58:34;;;;;;;5.65;4.85;;;19.30;50.00;;;;;;4940284;29;20201;-66
2023/01/20 04:01:04;;;;;;;6.35;5.13;;;19.40;50.10;;;;;;4943643;29;20214;-65
2023/01/20 04:03:34;;;;;;;5.50;5.00;;;19.30;49.90;;;;;;4948065;29;20202;-66
2023/01/20 04:06:05;;;;;;;4.80;4.40;;;19.30;49.90;;;;;;4954766;28;20659;-66
2023/01/20 04:08:35;;;;;;;4.60;4.20;;;19.30;49.80;;;;;;4939442;28;20207;-66
2023/01/20 04:11:07;;;;;;;5.68;5.18;;;19.30;49.90;;;;;;4918382;29;20194;-66
2023/01/20 04:13:33;;;;;;;5.20;4.70;;;19.30;49.90;;;;;;4929373;29;20306;-66
2023/01/20 04:16:02;;;;;;;5.15;4.65;;;19.30;49.90;;;;;;4953084;29;20186;-66
2023/01/20 04:18:28;;;;;;;5.25;4.75;;;19.30;49.90;;;;;;4923644;29;20687;-66
2023/01/20 04:21:02;;;;;;;5.05;4.57;;;19.30;49.90;;;;;;4967939;28;20190;-68
2023/01/20 04:23:48;;;;;;;5.45;4.95;;;19.30;49.90;;;;;;4939631;28;20261;-66
2023/01/20 04:26:14;;;;;;;5.47;4.43;;;19.30;49.80;;;;;;4937402;29;20265;-66
2023/01/20 04:28:40;;;;;;;4.82;4.43;;;19.30;49.90;;;;;;4946130;29;20286;-66
2023/01/20 04:31:06;;;;;;;5.05;4.55;;;19.30;50.50;;;;;;4944366;29;20198;-66
2023/01/20 04:33:34;;;;;;;5.03;4.53;;;19.30;49.80;;;;;;4949525;28;20218;-66
2023/01/20 04:36:00;;;;;;;4.72;4.32;;;19.30;49.80;;;;;;4934657;29;20199;-66
2023/01/20 04:38:26;;;;;;;4.63;4.22;;;19.30;49.80;;;;;;4953380;28;20261;-66
2023/01/20 04:40:51;;;;;;;4.65;4.25;;;19.30;49.70;;;;;;4952526;28;20186;-66
2023/01/20 04:43:17;;;;;;;5.22;4.72;;;19.30;49.80;;;;;;4926441;29;20191;-66
2023/01/20 04:45:43;;;;;;;6.13;4.95;;;19.30;49.80;;;;;;4941258;28;20660;-66
2023/01/20 04:48:09;;;;;;;5.30;4.80;;;19.30;49.80;;;;;;4937058;29;20297;-66
2023/01/20 04:50:44;;;;;;;5.60;5.10;;;19.30;49.80;;;;;;4946938;29;20209;-66
2023/01/20 04:53:15;;;;;;;5.43;4.93;;;19.30;49.80;;;;;;4936868;29;20213;-66
2023/01/20 04:55:42;;;;;;;4.93;4.43;;;19.30;49.80;;;;;;4997910;22;20234;-67
2023/01/20 04:58:09;;;;;;;5.38;4.85;;;19.30;49.80;;;;;;4971858;28;20193;-67
2023/01/20 05:00:35;;;;;;;4.60;4.20;;;19.30;49.80;;;;;;4972042;28;20244;-67
2023/01/20 05:03:01;;;;;;;5.53;4.97;;;19.30;49.80;;;;;;4972105;28;20201;-67
2023/01/20 05:05:28;;;;;;;5.97;5.05;;;19.30;49.80;;;;;;4953828;28;20240;-67
2023/01/20 05:07:55;;;;;;;4.95;4.55;;;19.30;49.80;;;;;;4940126;28;20206;-67
2023/01/20 05:10:22;;;;;;;4.80;4.40;;;19.30;49.80;;;;;;4947826;28;20196;-67
2023/01/20 05:12:47;;;;;;;5.03;4.60;;;19.30;49.80;;;;;;4972136;28;20213;-67
2023/01/20 05:15:13;;;;;;;5.38;4.88;;;19.20;49.80;;;;;;4958576;28;20205;-67
2023/01/20 05:17:39;;;;;;;5.15;4.65;;;19.20;49.70;;;;;;4975845;28;20264;-67
2023/01/20 05:20:05;;;;;;;4.90;4.40;;;19.30;49.80;;;;;;4959271;28;20252;-67
2023/01/20 05:22:33;;;;;;;4.63;4.22;;;19.30;49.80;;;;;;4962310;28;20190;-67
2023/01/20 05:24:59;;;;;;;5.07;4.57;;;19.30;49.80;;;;;;4973553;28;20221;-67
2023/01/20 05:27:25;;;;;;;4.88;4.47;;;19.30;49.70;;;;;;4940242;29;20200;-66
2023/01/20 05:29:51;;;;;;;5.20;4.70;;;19.30;49.80;;;;;;4964294;28;20244;-67
2023/01/20 05:32:17;;;;;;;5.15;4.65;;;19.20;49.70;;;;;;4976477;28;20209;-67
2023/01/20 05:34:42;;;;;;;6.00;4.80;;;19.20;49.70;;;;;;4959603;28;20593;-67
2023/01/20 05:37:08;;;;;;;4.88;4.43;;;19.20;49.70;;;;;;4972800;28;20189;-67
2023/01/20 05:39:34;;;;;;;4.47;4.07;;;19.20;49.70;;;;;;4948123;29;20205;-67
2023/01/20 05:42:00;;;;;;;5.38;4.60;;;19.20;49.70;;;;;;4957690;28;20654;-67
2023/01/20 05:44:26;;;;;;;5.10;4.60;;;19.20;49.60;;;;;;4954454;28;20265;-67
2023/01/20 05:46:52;;;;;;;4.63;4.22;;;19.20;49.70;;;;;;4947835;29;20206;-68
2023/01/20 05:49:18;;;;;;;4.63;4.22;;;19.20;49.60;;;;;;4955625;29;20194;-67
2023/01/20 05:51:43;;;;;;;5.00;4.55;;;19.20;49.70;;;;;;4972063;28;20312;-68
2023/01/20 05:54:09;;;;;;;4.70;4.30;;;19.20;49.60;;;;;;4951291;28;20230;-67
2023/01/20 05:56:35;;;;;;;5.18;4.68;;;19.20;49.70;;;;;;4953132;29;20249;-68
2023/01/20 05:59:00;;;;;;;5.30;4.80;;;19.20;49.70;;;;;;4955609;29;20265;-68
2023/01/20 06:01:26;;;;;;;5.53;4.95;;;19.20;49.70;;;;;;4955724;29;20194;-68
2023/01/20 06:03:52;;;;;;;4.60;4.20;;;19.20;49.80;;;;;;4940089;28;20207;-67
2023/01/20 06:06:18;;;;;;;4.90;4.50;;;19.30;49.80;;;;;;4955789;29;20555;-68
2023/01/20 06:08:45;;;;;;;4.63;4.22;;;19.20;49.70;;;;;;4939906;29;20190;-67
2023/01/20 06:11:13;;;;;;;4.70;4.30;;;19.20;49.70;;;;;;4958097;28;20249;-67
2023/01/20 06:13:39;;;;;;;4.78;4.38;;;19.20;49.70;;;;;;4958760;28;20240;-67
2023/01/20 06:16:06;;;;;;;5.50;4.47;;;19.20;49.70;;;;;;4975538;28;20221;-67
2023/01/20 06:18:33;;;;;;;5.25;4.82;;;19.20;49.80;;;;;;4960985;28;20191;-67
2023/01/20 06:20:59;;;;;;;5.13;4.63;;;19.20;49.70;;;;;;4971503;28;20225;-67
2023/01/20 06:23:26;;;;;;;5.50;4.65;;;19.20;49.80;;;;;;4953215;29;20218;-68
2023/01/20 06:26:09;;;;;;;4.70;4.30;;;19.20;49.70;;;;;;4953351;28;20217;-67
2023/01/20 06:28:35;;;;;;;4.90;4.50;;;19.20;49.70;;;;;;4951559;29;20194;-68
2023/01/20 06:31:12;;;;;;;4.88;4.25;;;19.20;49.70;;;;;;4954550;29;20202;-68
2023/01/20 06:33:38;;;;;;;4.70;4.30;;;19.20;49.70;;;;;;4954488;29;20214;-67
2023/01/20 06:36:05;;;;;;;4.30;3.90;;;19.20;49.70;;;;;;4955709;29;20688;-68
2023/01/20 06:38:34;;;;;;;5.03;4.63;;;19.20;49.70;;;;;;4946467;29;20246;-67
2023/01/20 06:41:05;;;;;;;4.78;4.32;;;19.20;49.80;;;;;;4954341;29;20186;-68
2023/01/20 06:43:33;;;;;;;4.57;4.18;;;19.20;49.70;;;;;;4966035;28;20249;-68
2023/01/20 06:46:01;;;;;;;4.38;3.97;;;19.20;49.80;;;;;;4956846;28;20194;-68
2023/01/20 06:48:28;;;;;;;4.75;4.35;;;19.20;49.70;;;;;;4954678;29;20599;-67
2023/01/20 06:50:59;;;;;;;4.78;4.30;;;19.20;49.70;;;;;;4954492;29;20179;-67
2023/01/20 06:53:25;;;;;;;4.68;4.28;;;19.20;49.70;;;;;;4954519;29;20211;-68
2023/01/20 06:55:56;;;;;;;4.68;4.28;;;19.20;49.70;;;;;;4953479;28;20229;-68
2023/01/20 06:58:28;;;;;;;4.93;4.43;;;19.20;49.60;;;;;;4957324;28;20236;-67
2023/01/20 07:00:55;;;;;;;4.80;4.40;;;19.20;49.70;;;;;;4974762;28;20186;-68
2023/01/20 07:03:21;;;;;;;4.40;4.00;;;19.20;49.70;;;;;;4957685;28;20232;-68
2023/01/20 07:06:30;;;;;;;4.40;4.00;;;19.20;49.70;;;;;;4957933;28;20308;-68
2023/01/20 07:08:57;;;;;;;4.30;3.90;;;19.20;49.70;;;;;;4950418;29;20190;-67
2023/01/20 07:11:23;;;;;;;5.72;4.40;;;19.20;49.80;;;;;;4955017;29;20285;-68
2023/01/20 07:13:49;;;;;;;4.32;3.92;;;19.20;49.70;;;;;;4945865;28;20638;-67
2023/01/20 07:16:15;;;;;;;4.10;3.70;;;19.20;49.80;;;;;;4973123;28;20205;-68
2023/01/20 07:18:45;;;;;;;4.45;4.05;;;19.20;49.80;;;;;;4972909;28;20186;-68
2023/01/20 07:21:11;;;;;;;5.32;4.30;;;19.20;49.70;;;;;;4972930;28;20186;-68
2023/01/20 07:23:37;;;;;;;4.25;3.92;;;19.20;49.80;;;;;;4956763;28;20224;-67
2023/01/20 07:26:10;;;;;;;4.70;4.22;;;19.20;49.70;;;;;;4973159;28;20190;-67
2023/01/20 07:28:37;;;;;;;4.80;4.40;;;19.20;49.80;;;;;;4973039;28;20189;-68
2023/01/20 07:31:13;;;;;;;4.50;4.00;;;19.20;49.80;;;;;;4956689;28;20197;-68
2023/01/20 07:33:39;;;;;;;4.13;3.75;;;19.20;49.80;;;;;;4969249;28;20225;-68
2023/01/20 07:36:09;;;;;;;4.07;3.65;;;19.20;49.70;;;;;;4953460;29;20186;-68
2023/01/20 07:38:35;;;;;;;4.35;3.95;;;19.10;49.70;;;;;;4953280;28;20218;-68
2023/01/20 07:41:10;;;;;;;4.68;4.22;;;19.20;49.80;;;;;;4954376;28;20196;-68
2023/01/20 07:43:36;;;;;;;4.45;4.05;;;19.20;49.80;;;;;;4966572;28;20193;-67
2023/01/20 07:46:03;;;;;;;4.38;3.97;;;19.20;50.40;;;;;;4972614;28;20256;-68
2023/01/20 07:48:32;;;;;;;4.30;3.90;;;19.20;49.80;;;;;;4961453;28;20248;-68
2023/01/20 07:51:04;;;;;;;4.22;3.83;;;19.20;49.80;;;;;;4954393;28;20190;-68
2023/01/20 07:53:39;;;;;;;4.50;4.10;;;19.20;49.80;;;;;;4972606;28;20218;-67
2023/01/20 07:56:18;;;;;;;4.00;3.70;;;19.20;49.80;;;;;;4956258;28;20640;-68
2023/01/20 07:58:44;;;;;;;3.80;3.38;;;19.10;49.70;;;;;;4972320;28;20256;-68
2023/01/20 08:01:21;;;;;;;4.10;3.70;;;19.20;49.80;;;;;;4973327;28;20205;-67
2023/01/20 08:03:48;;;;;;;4.18;3.80;;;19.20;49.80;;;;;;4973414;28;20193;-67
2023/01/20 08:06:17;;;;;;;4.88;4.38;;;19.20;49.80;;;;;;4972032;28;20196;-67
2023/01/20 08:08:43;;;;;;;4.43;4.03;;;19.20;49.80;;;;;;4966115;28;20198;-68
2023/01/20 08:11:12;;;;;;;4.50;4.10;;;19.20;49.80;;;;;;4953918;28;20185;-67
2023/01/20 08:13:39;;;;;;;3.92;3.53;;;19.20;49.80;;;;;;4968715;28;20225;-68
2023/01/20 08:16:08;;;;;;;3.88;3.47;;;19.20;49.80;;;;;;4952414;28;20218;-67
2023/01/20 08:18:35;;;;;;;4.45;4.05;;;19.20;49.80;;;;;;4946012;29;20324;-68
2023/01/20 08:21:05;;;;;;;3.78;3.47;;;19.20;49.80;;;;;;4952335;28;20178;-68
2023/01/20 08:23:35;;;;;;;4.13;3.80;;;19.20;49.80;;;;;;4947430;28;20191;-68
2023/01/20 08:26:04;;;;;;;4.47;3.78;;;19.20;49.80;;;;;;4945638;29;20201;-67
2023/01/20 08:28:31;;;;;;;3.80;3.42;;;19.20;49.90;;;;;;4931940;29;20224;-68
2023/01/20 08:31:10;;;;;;;4.00;3.70;;;19.20;49.80;;;;;;4945674;28;20231;-68
2023/01/20 08:33:37;;;;;;;4.28;3.80;;;19.20;50.50;;;;;;4951166;28;20765;-68
2023/01/20 08:36:10;;;;;;;4.20;3.80;;;19.20;49.90;;;;;;4960750;28;20187;-68
2023/01/20 08:38:37;;;;;;;4.18;3.63;;;19.10;49.80;;;;;;4952413;28;20187;-68
2023/01/20 08:41:10;;;;;;;4.15;3.75;;;19.20;49.80;;;;;;4936952;28;20179;-68
2023/01/20 08:43:36;;;;;;;4.32;3.92;;;19.10;49.80;;;;;;4946558;28;20649;-68
2023/01/20 08:46:06;;;;;;;4.00;3.70;;;19.20;49.90;;;;;;4949146;28;20273;-68
2023/01/20 08:48:34;;;;;;;3.85;3.55;;;19.20;49.80;;;;;;4959422;28;20203;-68
2023/01/20 08:51:08;;;;;;;4.63;4.10;;;19.20;49.80;;;;;;4938412;29;20191;-68
2023/01/20 08:53:35;;;;;;;4.00;3.45;;;19.20;49.80;;;;;;4961254;28;20221;-68
2023/01/20 08:56:02;;;;;;;3.97;3.63;;;19.20;50.40;;;;;;4960415;28;20253;-68
2023/01/20 08:58:28;;;;;;;4.18;3.85;;;19.20;49.80;;;;;;4944589;29;20277;-67
2023/01/20 09:00:55;;;;;;;4.25;3.85;;;19.20;49.90;;;;;;4951132;28;20277;-68
2023/01/20 09:03:21;;;;;;;4.28;3.88;;;19.20;49.90;;;;;;4937032;29;20241;-68
2023/01/20 09:05:49;;;;;;;4.15;3.85;;;19.20;49.90;;;;;;4952184;29;20210;-68
2023/01/20 09:08:16;;;;;;;4.30;3.90;;;19.20;49.90;;;;;;4953445;28;20209;-67
2023/01/20 09:10:43;;;;;;;3.80;3.50;;;19.20;49.90;;;;;;4950775;29;20221;-68
2023/01/20 09:13:09;;;;;;;4.38;4.03;;;19.20;49.90;;;;;;4952907;28;20714;-68
2023/01/20 09:15:34;;;;;;;4.55;3.67;;;19.20;50.00;;;;;;4971481;28;20214;-68
2023/01/20 09:18:00;;;;;;;3.80;3.50;;;19.20;50.00;;;;;;4971375;28;20669;-68
2023/01/20 09:20:27;;;;;;;3.90;3.60;;;19.20;50.00;;;;;;4971223;28;20192;-68
2023/01/20 09:22:53;;;;;;;3.97;3.63;;;19.20;50.00;;;;;;4971550;28;20196;-68
2023/01/20 09:25:20;;;;;;;3.75;3.45;;;19.20;50.00;;;;;;4971233;28;20214;-68
2023/01/20 09:27:46;;;;;;;3.72;3.42;;;19.20;50.00;;;;;;4971331;28;20202;-68
2023/01/20 09:30:12;;;;;;;3.25;3.00;;;19.20;50.00;;;;;;4970028;28;20197;-68
2023/01/20 09:32:38;;;;;;;3.55;3.25;;;19.20;50.00;;;;;;4951855;29;20301;-68
2023/01/20 09:35:05;;;;;;;3.28;2.97;;;19.20;50.00;;;;;;4960820;28;20233;-68
2023/01/20 09:44:04;;;;;;;3.53;3.13;;;19.30;50.10;;;;;;4951774;29;20218;-68
2023/01/20 09:55:50;;;;;;;3.30;3.00;;;19.30;50.20;;;;;;4947015;28;20210;-68
2023/01/20 09:58:26;;;;;;;3.15;2.78;;;19.30;50.20;;;;;;4958994;28;20186;-68
2023/01/20 10:01:20;;;;;;;2.88;2.67;;;19.30;50.20;;;;;;4941573;28;20178;-68
2023/01/20 10:04:00;;;;;;;3.30;3.00;;;19.30;50.20;;;;;;4974189;28;20193;-68
2023/01/20 10:07:08;;;;;;;3.30;3.00;;;19.30;50.20;;;;;;4963278;28;20213;-68
2023/01/20 10:09:44;;;;;;;3.15;2.85;;;19.30;50.20;;;;;;4955706;29;20248;-68
2023/01/20 10:12:27;;;;;;;2.50;2.30;;;19.30;50.20;;;;;;4954567;29;20213;-68
2023/01/20 10:15:17;;;;;;;3.20;2.90;;;19.40;50.20;;;;;;4961217;28;20209;-68
2023/01/20 10:17:56;;;;;;;3.38;3.00;;;19.40;50.20;;;;;;4974209;28;20332;-68
2023/01/20 10:20:47;;;;;;;3.30;3.08;;;19.40;50.20;;;;;;4973870;28;20199;-68
2023/01/20 10:23:44;;;;;;;3.67;2.70;;;19.40;50.20;;;;;;4974312;28;20596;-68
2023/01/20 10:26:45;;;;;;;3.00;2.80;;;19.40;50.20;;;;;;4937609;29;20264;-68
2023/01/20 10:29:26;;;;;;;2.67;2.47;;;19.40;50.30;;;;;;4954475;29;20206;-66
2023/01/20 10:32:18;;;;;;;2.97;2.67;;;19.50;50.50;;;;;;4960664;28;20284;-68
2023/01/20 10:34:47;;;;;;;2.97;2.67;;;19.40;50.40;;;;;;4957845;28;20220;-68
2023/01/20 10:37:15;;;;;;;3.05;2.85;;;19.40;50.40;;;;;;4973630;28;20178;-68
2023/01/20 10:40:02;;;;;;;2.58;2.38;;;19.40;50.40;;;;;;4957469;28;20194;-68
2023/01/20 10:42:28;;;;;;;3.28;2.97;;;19.40;50.40;;;;;;4973757;28;20198;-68
2023/01/20 10:44:54;;;;;;;3.30;2.97;;;19.40;50.50;;;;;;4973849;28;20276;-67
2023/01/20 10:47:35;;;;;;;2.80;2.60;;;19.40;50.50;;;;;;4973177;28;20182;-67
2023/01/20 10:50:30;;;;;;;2.50;2.40;;;19.50;50.50;;;;;;4938491;29;20179;-68
2023/01/20 10:53:40;;;;;;;2.45;2.25;;;19.50;50.60;;;;;;4945036;28;20213;-68
2023/01/20 10:56:33;;;;;;;2.53;2.33;;;19.40;50.40;;;;;;4985302;23;20333;-67
2023/01/20 10:59:10;;;;;;;3.05;2.75;;;19.40;50.40;;;;;;4957697;28;20233;-67
2023/01/20 11:01:36;;;;;;;2.83;2.50;;;19.40;50.40;;;;;;4966473;28;20239;-66
2023/01/20 11:04:01;;;;;;;2.67;2.47;;;19.40;50.40;;;;;;4970571;28;20281;-66
2023/01/20 11:06:27;;;;;;;2.60;2.40;;;19.40;50.40;;;;;;4965152;28;20197;-66
2023/01/20 11:08:55;;;;;;;2.30;2.10;;;19.40;50.40;;;;;;4960016;28;20189;-67
2023/01/20 11:11:25;;;;;;;2.30;2.10;;;19.40;50.40;;;;;;4963628;28;20237;-66
2023/01/20 11:13:52;;;;;;;2.70;2.50;;;19.40;50.40;;;;;;4974344;28;20305;-66
2023/01/20 11:16:27;;;;;;;2.72;2.53;;;19.40;50.50;;;;;;4973815;28;20249;-66
2023/01/20 11:19:01;;;;;;;2.88;2.55;;;19.40;50.50;;;;;;4957605;28;20182;-67
2023/01/20 11:21:35;;;;;;;2.10;2.00;;;19.50;50.50;;;;;;4973440;28;20228;-66
2023/01/20 11:24:23;;;;;;;2.72;2.53;;;19.40;50.40;;;;;;4973603;28;20200;-66
2023/01/20 11:26:49;;;;;;;2.30;2.10;;;19.40;50.50;;;;;;4974538;28;20571;-66
2023/01/20 11:29:14;;;;;;;2.60;2.03;;;19.40;50.40;;;;;;4957079;28;20639;-66
2023/01/20 11:31:54;;;;;;;3.22;2.45;;;19.50;50.50;;;;;;4989564;28;20279;-66
2023/01/20 11:34:32;;;;;;;2.30;2.20;;;19.40;50.50;;;;;;4973437;28;20170;-66
2023/01/20 11:37:04;;;;;;;2.78;2.58;;;19.50;50.50;;;;;;4973487;28;20174;-67
2023/01/20 11:39:32;;;;;;;3.17;2.28;;;19.40;50.40;;;;;;4989115;28;20332;-66
2023/01/20 11:42:20;;;;;;;2.88;2.22;;;19.50;50.40;;;;;;4957306;28;20208;-66
2023/01/20 11:44:48;;;;;;;2.28;2.08;;;19.50;50.50;;;;;;4954008;29;20206;-67
2023/01/20 11:47:35;;;;;;;2.30;2.10;;;19.50;50.40;;;;;;4946065;28;20252;-67
2023/01/20 11:50:03;;;;;;;2.70;2.50;;;19.40;50.40;;;;;;4973309;28;20721;-66
2023/01/20 11:52:47;;;;;;;2.60;2.40;;;19.40;50.40;;;;;;4970763;28;20213;-66
2023/01/20 11:55:16;;;;;;;2.40;2.20;;;19.40;50.40;;;;;;4956687;28;20240;-67
2023/01/20 11:57:47;;;;;;;2.05;1.88;;;19.50;50.60;;;;;;4962021;28;20301;-67
2023/01/20 12:00:41;;;;;;;2.25;2.05;;;19.50;50.70;;;;;;4985527;28;20193;-66
2023/01/20 12:03:09;;;;;;;1.92;1.83;;;19.40;50.60;;;;;;4956192;28;20194;-66
2023/01/20 12:05:47;;;;;;;2.90;2.40;;;19.40;50.70;;;;;;4956743;28;20201;-66
2023/01/20 12:08:38;;;;;;;2.10;2.00;;;19.40;50.70;;;;;;4972979;28;20288;-66
2023/01/20 12:11:08;;;;;;;2.00;1.90;;;19.40;50.80;;;;;;4988948;28;20185;-67
2023/01/20 12:14:18;;;;;;;2.47;2.28;;;19.40;51.40;;;;;;4954629;28;20214;-66
2023/01/20 12:16:59;;;;;;;2.13;1.92;;;19.40;50.60;;;;;;4950355;28;20559;-67
2023/01/20 12:19:55;;;;;;;2.15;1.95;;;19.40;50.80;;;;;;4969997;28;20213;-66
2023/01/20 12:22:30;;;;;;;3.22;2.03;;;19.50;50.90;;;;;;4967035;28;20307;-67
2023/01/20 12:25:22;;;;;;;2.30;2.10;;;19.40;50.80;;;;;;4942912;28;20604;-67
2023/01/20 12:27:53;;;;;;;2.13;2.03;;;19.40;50.80;;;;;;4956425;28;20212;-68
2023/01/20 12:30:33;;;;;;;2.35;2.15;;;19.40;50.80;;;;;;4971805;28;20198;-69
2023/01/20 12:32:59;;;;;;;2.25;2.05;;;19.40;50.70;;;;;;4960294;28;20232;-69
2023/01/20 12:35:32;;;;;;;2.78;1.88;;;19.40;50.70;;;;;;4960434;28;20202;-68
2023/01/20 12:38:13;;;;;;;1.95;1.85;;;19.40;50.70;;;;;;4959123;28;20198;-68
2023/01/20 12:40:51;;;;;;;2.33;2.13;;;19.40;50.80;;;;;;4954104;29;20167;-69
2023/01/20 12:43:40;;;;;;;2.30;1.92;;;19.40;50.70;;;;;;4937167;29;20186;-68
2023/01/20 12:46:33;;;;;;;1.90;1.80;;;19.40;50.60;;;;;;4954429;28;20234;-68
2023/01/20 12:49:18;;;;;;;2.10;1.90;;;19.40;50.80;;;;;;4988325;28;20300;-69
2023/01/20 12:52:07;;;;;;;2.63;1.88;;;19.40;50.60;;;;;;4952228;29;20208;-68
2023/01/20 12:54:35;;;;;;;2.20;2.00;;;19.40;50.60;;;;;;4936760;29;20246;-68
2023/01/20 12:57:28;;;;;;;2.58;1.65;;;19.40;50.60;;;;;;4967229;28;20189;-68
2023/01/20 13:00:12;;;;;;;2.15;1.98;;;19.40;50.60;;;;;;4972240;28;20257;-69
2023/01/20 13:03:15;;;;;;;1.90;1.80;;;19.40;50.60;;;;;;4972372;28;20639;-68
2023/01/20 13:06:13;;;;;;;1.70;1.50;;;19.40;50.60;;;;;;4953071;29;20206;-68
2023/01/20 13:09:19;;;;;;;1.80;1.70;;;19.40;50.50;;;;;;4971709;28;20204;-69
2023/01/20 13:12:36;;;;;;;2.20;2.00;;;19.50;50.80;;;;;;4961278;28;20197;-67
2023/01/20 13:15:18;;;;;;;1.95;1.73;;;19.40;50.70;;;;;;4976997;28;20214;-68
2023/01/20 13:18:06;;;;;;;2.17;1.85;;;19.40;50.60;;;;;;4936991;29;20768;-69
2023/01/20 13:20:36;;;;;;;2.00;1.90;;;19.40;50.80;;;;;;4936258;29;20209;-69
2023/01/20 13:23:05;;;;;;;2.38;2.00;;;19.40;50.80;;;;;;4953970;29;20182;-69
2023/01/20 13:25:33;;;;;;;1.90;1.80;;;19.40;50.80;;;;;;4936714;29;20307;-68
2023/01/20 13:28:01;;;;;;;1.80;1.70;;;19.40;50.80;;;;;;4952776;28;20179;-68
2023/01/20 13:30:36;;;;;;;1.70;1.60;;;19.40;50.80;;;;;;4968828;28;20195;-69
2023/01/20 13:33:16;;;;;;;2.20;2.00;;;19.40;50.80;;;;;;4974901;28;20232;-68
2023/01/20 13:35:48;;;;;;;2.90;1.75;;;19.40;50.80;;;;;;4973232;28;20213;-69